sensor_id;sensor_type;location;lat;lon;timestamp;pressure;altitude;pressure_sealevel;temperature;humidity
74529;BME280;63009;52.584;5.932;2022-09-17T00:00:49;101321.22;;;11.11;81.09
74529;BME280;63009;52.584;5.932;2022-09-17T00:03:15;101306.53;;;11.05;81.44
74529;BME280;63009;52.584;5.932;2022-09-17T00:05:42;101295.75;;;10.92;81.47
74529;BME280;63009;52.584;5.932;2022-09-17T00:08:11;101320.31;;;10.94;82.77
74529;BME280;63009;52.584;5.932;2022-09-17T00:10:41;101348.25;;;11.00;83.21
74529;BME280;63009;52.584;5.932;2022-09-17T00:13:07;101327.72;;;10.88;83.36
74529;BME280;63009;52.584;5.932;2022-09-17T00:15:40;101295.69;;;10.77;82.93
74529;BME280;63009;52.584;5.932;2022-09-17T00:18:05;101297.41;;;10.78;82.75
74529;BME280;63009;52.584;5.932;2022-09-17T00:20:31;101345.66;;;11.16;82.56
74529;BME280;63009;52.584;5.932;2022-09-17T00:22:56;101288.63;;;10.77;83.13
74529;BME280;63009;52.584;5.932;2022-09-17T00:25:21;101288.38;;;10.82;83.38
74529;BME280;63009;52.584;5.932;2022-09-17T00:27:47;101291.72;;;10.85;82.39
74529;BME280;63009;52.584;5.932;2022-09-17T00:30:12;101287.59;;;10.80;82.41
74529;BME280;63009;52.584;5.932;2022-09-17T00:32:38;101339.06;;;11.07;82.88
74529;BME280;63009;52.584;5.932;2022-09-17T00:35:04;101308.03;;;10.93;82.49
74529;BME280;63009;52.584;5.932;2022-09-17T00:37:30;101319.38;;;10.95;82.58
74529;BME280;63009;52.584;5.932;2022-09-17T00:39:55;101297.31;;;10.79;81.91
74529;BME280;63009;52.584;5.932;2022-09-17T00:42:21;101339.22;;;11.04;82.19
74529;BME280;63009;52.584;5.932;2022-09-17T00:44:52;101341.09;;;11.02;82.65
74529;BME280;63009;52.584;5.932;2022-09-17T00:49:55;101357.47;;;11.09;82.60
74529;BME280;63009;52.584;5.932;2022-09-17T00:52:28;101318.47;;;10.79;82.45
74529;BME280;63009;52.584;5.932;2022-09-17T00:55:29;101345.06;;;10.93;82.56
74529;BME280;63009;52.584;5.932;2022-09-17T00:57:57;101282.72;;;10.55;82.41
74529;BME280;63009;52.584;5.932;2022-09-17T01:00:24;101290.03;;;10.50;82.21
74529;BME280;63009;52.584;5.932;2022-09-17T01:02:51;101312.34;;;10.61;82.20
74529;BME280;63009;52.584;5.932;2022-09-17T01:05:23;101324.72;;;10.61;81.80
74529;BME280;63009;52.584;5.932;2022-09-17T01:13:19;101353.88;;;10.59;82.39
74529;BME280;63009;52.584;5.932;2022-09-17T01:16:09;101370.75;;;10.57;82.69
74529;BME280;63009;52.584;5.932;2022-09-17T01:18:59;101331.16;;;10.19;83.44
74529;BME280;63009;52.584;5.932;2022-09-17T01:24:49;101318.16;;;10.33;81.63
74529;BME280;63009;52.584;5.932;2022-09-17T01:33:54;101330.22;;;10.39;82.29
74529;BME280;63009;52.584;5.932;2022-09-17T01:39:17;101296.63;;;10.24;81.81
74529;BME280;63009;52.584;5.932;2022-09-17T01:41:57;101368.38;;;10.68;80.91
74529;BME280;63009;52.584;5.932;2022-09-17T01:44:30;101379.44;;;10.59;81.56
74529;BME280;63009;52.584;5.932;2022-09-17T01:47:23;101386.13;;;10.66;81.38
74529;BME280;63009;52.584;5.932;2022-09-17T01:49:54;101318.78;;;10.21;81.69
74529;BME280;63009;52.584;5.932;2022-09-17T01:52:22;101350.41;;;10.40;81.32
74529;BME280;63009;52.584;5.932;2022-09-17T01:54:52;101335.88;;;10.31;81.14
74529;BME280;63009;52.584;5.932;2022-09-17T01:57:31;101386.13;;;10.66;81.48
74529;BME280;63009;52.584;5.932;2022-09-17T02:00:02;101331.03;;;10.22;81.40
74529;BME280;63009;52.584;5.932;2022-09-17T02:02:31;101333.53;;;10.25;81.58
74529;BME280;63009;52.584;5.932;2022-09-17T02:05:03;101365.03;;;10.47;81.99
74529;BME280;63009;52.584;5.932;2022-09-17T02:07:30;101365.19;;;10.44;81.67
74529;BME280;63009;52.584;5.932;2022-09-17T02:10:10;101331.75;;;10.26;82.01
74529;BME280;63009;52.584;5.932;2022-09-17T02:12:43;101360.00;;;10.43;82.37
74529;BME280;63009;52.584;5.932;2022-09-17T02:15:15;101401.22;;;10.64;82.47
74529;BME280;63009;52.584;5.932;2022-09-17T02:20:23;101415.22;;;10.83;81.56
74529;BME280;63009;52.584;5.932;2022-09-17T02:22:55;101405.28;;;10.88;81.15
74529;BME280;63009;52.584;5.932;2022-09-17T02:25:33;101407.75;;;10.91;81.17
74529;BME280;63009;52.584;5.932;2022-09-17T02:28:07;101402.22;;;10.96;80.69
74529;BME280;63009;52.584;5.932;2022-09-17T02:30:36;101401.44;;;10.94;80.63
74529;BME280;63009;52.584;5.932;2022-09-17T02:33:04;101382.34;;;10.89;79.79
74529;BME280;63009;52.584;5.932;2022-09-17T02:35:31;101381.47;;;10.88;79.85
74529;BME280;63009;52.584;5.932;2022-09-17T02:37:57;101391.50;;;10.82;80.05
74529;BME280;63009;52.584;5.932;2022-09-17T02:40:26;101402.84;;;10.84;80.42
74529;BME280;63009;52.584;5.932;2022-09-17T02:43:13;101396.09;;;10.78;80.75
74529;BME280;63009;52.584;5.932;2022-09-17T02:45:53;101391.97;;;10.73;80.96
74529;BME280;63009;52.584;5.932;2022-09-17T02:54:16;101413.66;;;10.62;81.36
74529;BME280;63009;52.584;5.932;2022-09-17T02:57:06;101411.31;;;10.56;81.95
74529;BME280;63009;52.584;5.932;2022-09-17T02:59:45;101447.66;;;10.51;82.49
74529;BME280;63009;52.584;5.932;2022-09-17T03:02:32;101432.03;;;10.46;84.49
74529;BME280;63009;52.584;5.932;2022-09-17T03:05:01;101430.06;;;10.32;85.58
74529;BME280;63009;52.584;5.932;2022-09-17T03:07:28;101436.75;;;10.39;86.14
74529;BME280;63009;52.584;5.932;2022-09-17T03:09:53;101431.69;;;10.35;87.34
74529;BME280;63009;52.584;5.932;2022-09-17T03:12:18;101416.78;;;10.34;87.02
74529;BME280;63009;52.584;5.932;2022-09-17T03:14:44;101384.47;;;10.29;86.47
74529;BME280;63009;52.584;5.932;2022-09-17T03:17:10;101387.72;;;10.34;85.91
74529;BME280;63009;52.584;5.932;2022-09-17T03:19:36;101388.66;;;10.33;85.58
74529;BME280;63009;52.584;5.932;2022-09-17T03:22:01;101367.22;;;10.20;85.46
74529;BME280;63009;52.584;5.932;2022-09-17T03:24:26;101385.38;;;10.28;85.31
74529;BME280;63009;52.584;5.932;2022-09-17T03:26:51;101376.53;;;10.29;84.64
74529;BME280;63009;52.584;5.932;2022-09-17T03:29:17;101374.88;;;10.26;84.85
74529;BME280;63009;52.584;5.932;2022-09-17T03:31:42;101386.56;;;10.21;84.82
74529;BME280;63009;52.584;5.932;2022-09-17T03:34:07;101400.78;;;10.18;84.59
74529;BME280;63009;52.584;5.932;2022-09-17T03:36:33;101391.81;;;10.03;84.12
74529;BME280;63009;52.584;5.932;2022-09-17T03:38:58;101394.78;;;9.96;84.33
74529;BME280;63009;52.584;5.932;2022-09-17T03:41:24;101406.28;;;9.95;84.44
74529;BME280;63009;52.584;5.932;2022-09-17T03:43:50;101410.94;;;9.90;85.19
74529;BME280;63009;52.584;5.932;2022-09-17T03:46:16;101408.56;;;9.83;85.85
74529;BME280;63009;52.584;5.932;2022-09-17T03:48:42;101406.91;;;9.81;86.49
74529;BME280;63009;52.584;5.932;2022-09-17T03:51:07;101419.84;;;9.87;86.86
74529;BME280;63009;52.584;5.932;2022-09-17T03:53:32;101429.59;;;9.85;87.90
74529;BME280;63009;52.584;5.932;2022-09-17T03:55:59;101421.56;;;9.88;87.88
74529;BME280;63009;52.584;5.932;2022-09-17T03:58:26;101413.34;;;9.94;86.93
74529;BME280;63009;52.584;5.932;2022-09-17T04:00:51;101413.78;;;10.04;85.30
74529;BME280;63009;52.584;5.932;2022-09-17T04:03:17;101410.06;;;10.08;85.00
74529;BME280;63009;52.584;5.932;2022-09-17T04:05:43;101386.59;;;10.02;84.67
74529;BME280;63009;52.584;5.932;2022-09-17T04:08:08;101409.72;;;10.16;84.38
74529;BME280;63009;52.584;5.932;2022-09-17T04:10:33;101425.63;;;10.14;84.47
74529;BME280;63009;52.584;5.932;2022-09-17T04:12:58;101408.94;;;10.14;83.24
74529;BME280;63009;52.584;5.932;2022-09-17T04:15:24;101416.63;;;10.18;83.64
74529;BME280;63009;52.584;5.932;2022-09-17T04:17:49;101394.38;;;10.05;84.12
74529;BME280;63009;52.584;5.932;2022-09-17T04:20:14;101406.88;;;10.01;84.61
74529;BME280;63009;52.584;5.932;2022-09-17T04:22:40;101407.84;;;9.99;84.69
74529;BME280;63009;52.584;5.932;2022-09-17T04:25:06;101414.97;;;9.97;85.05
74529;BME280;63009;52.584;5.932;2022-09-17T04:27:31;101404.78;;;9.89;84.77
74529;BME280;63009;52.584;5.932;2022-09-17T04:29:57;101413.13;;;9.99;84.49
74529;BME280;63009;52.584;5.932;2022-09-17T04:32:22;101421.63;;;10.05;83.20
74529;BME280;63009;52.584;5.932;2022-09-17T04:34:47;101412.06;;;10.03;83.47
74529;BME280;63009;52.584;5.932;2022-09-17T04:37:12;101417.06;;;10.09;83.25
74529;BME280;63009;52.584;5.932;2022-09-17T04:39:38;101414.63;;;10.04;83.23
74529;BME280;63009;52.584;5.932;2022-09-17T04:42:03;101424.97;;;10.09;82.96
74529;BME280;63009;52.584;5.932;2022-09-17T04:44:29;101412.00;;;10.04;83.30
74529;BME280;63009;52.584;5.932;2022-09-17T04:46:54;101413.84;;;10.02;82.86
74529;BME280;63009;52.584;5.932;2022-09-17T04:49:20;101413.94;;;10.01;83.14
74529;BME280;63009;52.584;5.932;2022-09-17T04:51:45;101424.50;;;10.01;83.18
74529;BME280;63009;52.584;5.932;2022-09-17T04:54:11;101415.97;;;9.94;82.97
74529;BME280;63009;52.584;5.932;2022-09-17T04:56:36;101423.91;;;9.94;82.93
74529;BME280;63009;52.584;5.932;2022-09-17T04:59:01;101420.47;;;9.92;82.53
74529;BME280;63009;52.584;5.932;2022-09-17T05:01:26;101421.63;;;9.87;82.72
74529;BME280;63009;52.584;5.932;2022-09-17T05:03:52;101422.34;;;9.90;82.36
74529;BME280;63009;52.584;5.932;2022-09-17T05:06:17;101419.19;;;9.82;82.29
74529;BME280;63009;52.584;5.932;2022-09-17T05:08:42;101429.34;;;9.91;81.87
74529;BME280;63009;52.584;5.932;2022-09-17T05:11:07;101421.75;;;9.83;81.52
74529;BME280;63009;52.584;5.932;2022-09-17T05:13:33;101428.41;;;9.92;81.71
74529;BME280;63009;52.584;5.932;2022-09-17T05:15:58;101423.97;;;9.93;81.44
74529;BME280;63009;52.584;5.932;2022-09-17T05:18:24;101424.50;;;10.01;80.55
74529;BME280;63009;52.584;5.932;2022-09-17T05:20:50;101433.91;;;10.06;80.25
74529;BME280;63009;52.584;5.932;2022-09-17T05:23:16;101431.25;;;10.06;80.69
74529;BME280;63009;52.584;5.932;2022-09-17T05:25:42;101463.25;;;10.19;80.06
74529;BME280;63009;52.584;5.932;2022-09-17T05:28:07;101463.97;;;10.23;80.35
74529;BME280;63009;52.584;5.932;2022-09-17T05:30:33;101459.47;;;10.25;80.74
74529;BME280;63009;52.584;5.932;2022-09-17T05:33:02;101454.06;;;10.28;81.43
74529;BME280;63009;52.584;5.932;2022-09-17T05:35:29;101446.06;;;10.29;80.63
74529;BME280;63009;52.584;5.932;2022-09-17T05:37:59;101455.91;;;10.45;81.06
74529;BME280;63009;52.584;5.932;2022-09-17T05:40:25;101454.81;;;10.49;81.25
74529;BME280;63009;52.584;5.932;2022-09-17T05:42:50;101448.59;;;10.50;81.41
74529;BME280;63009;52.584;5.932;2022-09-17T05:45:15;101445.41;;;10.43;81.29
74529;BME280;63009;52.584;5.932;2022-09-17T05:47:41;101457.47;;;10.49;81.36
74529;BME280;63009;52.584;5.932;2022-09-17T05:50:06;101453.88;;;10.50;81.53
74529;BME280;63009;52.584;5.932;2022-09-17T05:52:32;101451.41;;;10.47;80.75
74529;BME280;63009;52.584;5.932;2022-09-17T05:54:57;101445.34;;;10.45;81.43
74529;BME280;63009;52.584;5.932;2022-09-17T05:57:22;101452.50;;;10.43;81.60
74529;BME280;63009;52.584;5.932;2022-09-17T05:59:48;101463.06;;;10.43;81.97
74529;BME280;63009;52.584;5.932;2022-09-17T06:02:13;101455.19;;;10.41;82.05
74529;BME280;63009;52.584;5.932;2022-09-17T06:04:38;101463.06;;;10.43;82.17
74529;BME280;63009;52.584;5.932;2022-09-17T06:07:04;101457.81;;;10.41;82.69
74529;BME280;63009;52.584;5.932;2022-09-17T06:09:34;101476.91;;;10.48;83.21
74529;BME280;63009;52.584;5.932;2022-09-17T06:12:00;101465.25;;;10.52;83.62
74529;BME280;63009;52.584;5.932;2022-09-17T06:14:25;101473.44;;;10.64;83.38
74529;BME280;63009;52.584;5.932;2022-09-17T06:16:50;101479.34;;;10.69;83.45
74529;BME280;63009;52.584;5.932;2022-09-17T06:19:16;101484.13;;;10.80;82.38
74529;BME280;63009;52.584;5.932;2022-09-17T06:21:41;101463.13;;;10.77;81.57
74529;BME280;63009;52.584;5.932;2022-09-17T06:24:08;101485.72;;;11.02;80.78
74529;BME280;63009;52.584;5.932;2022-09-17T06:26:34;101478.88;;;11.15;80.54
74529;BME280;63009;52.584;5.932;2022-09-17T06:28:59;101470.69;;;11.19;78.62
74529;BME280;63009;52.584;5.932;2022-09-17T06:31:25;101484.47;;;11.26;78.43
74529;BME280;63009;52.584;5.932;2022-09-17T06:33:50;101481.44;;;11.34;78.49
74529;BME280;63009;52.584;5.932;2022-09-17T06:36:15;101450.88;;;11.28;78.34
74529;BME280;63009;52.584;5.932;2022-09-17T06:38:41;101486.31;;;11.58;78.26
74529;BME280;63009;52.584;5.932;2022-09-17T06:41:07;101488.16;;;11.74;78.82
74529;BME280;63009;52.584;5.932;2022-09-17T06:43:32;101482.41;;;11.66;78.82
74529;BME280;63009;52.584;5.932;2022-09-17T06:46:02;101490.97;;;11.53;79.14
74529;BME280;63009;52.584;5.932;2022-09-17T06:48:32;101484.56;;;11.42;79.40
74529;BME280;63009;52.584;5.932;2022-09-17T06:51:03;101482.38;;;11.33;78.57
74529;BME280;63009;52.584;5.932;2022-09-17T06:53:29;101484.16;;;11.32;78.85
74529;BME280;63009;52.584;5.932;2022-09-17T06:55:59;101477.31;;;11.45;78.36
74529;BME280;63009;52.584;5.932;2022-09-17T06:58:25;101493.28;;;11.77;78.54
74529;BME280;63009;52.584;5.932;2022-09-17T07:00:51;101499.88;;;12.03;77.31
74529;BME280;63009;52.584;5.932;2022-09-17T07:03:16;101487.59;;;12.17;76.62
74529;BME280;63009;52.584;5.932;2022-09-17T07:05:43;101492.22;;;12.45;74.86
74529;BME280;63009;52.584;5.932;2022-09-17T07:08:08;101492.38;;;12.74;73.48
74529;BME280;63009;52.584;5.932;2022-09-17T07:10:35;101492.84;;;13.12;72.07
74529;BME280;63009;52.584;5.932;2022-09-17T07:13:00;101479.88;;;13.22;71.12
74529;BME280;63009;52.584;5.932;2022-09-17T07:15:26;101499.75;;;13.15;70.69
74529;BME280;63009;52.584;5.932;2022-09-17T07:17:51;101483.22;;;12.95;70.68
74529;BME280;63009;52.584;5.932;2022-09-17T07:20:16;101485.69;;;12.98;70.75
74529;BME280;63009;52.584;5.932;2022-09-17T07:22:42;101493.97;;;12.92;71.84
74529;BME280;63009;52.584;5.932;2022-09-17T07:25:08;101490.34;;;13.25;71.39
74529;BME280;63009;52.584;5.932;2022-09-17T07:27:34;101495.28;;;13.31;69.64
74529;BME280;63009;52.584;5.932;2022-09-17T07:29:59;101498.97;;;13.28;70.12
74529;BME280;63009;52.584;5.932;2022-09-17T07:32:24;101495.06;;;13.04;70.25
74529;BME280;63009;52.584;5.932;2022-09-17T07:34:50;101495.03;;;12.74;71.91
74529;BME280;63009;52.584;5.932;2022-09-17T07:37:16;101488.13;;;12.56;73.23
74529;BME280;63009;52.584;5.932;2022-09-17T07:39:42;101482.66;;;12.59;72.14
74529;BME280;63009;52.584;5.932;2022-09-17T07:42:08;101502.00;;;13.06;70.72
74529;BME280;63009;52.584;5.932;2022-09-17T07:44:34;101491.88;;;13.29;68.76
74529;BME280;63009;52.584;5.932;2022-09-17T07:46:59;101471.97;;;13.50;68.75
74529;BME280;63009;52.584;5.932;2022-09-17T07:49:24;101489.59;;;13.95;68.06
74529;BME280;63009;52.584;5.932;2022-09-17T07:51:50;101494.78;;;14.25;66.78
74529;BME280;63009;52.584;5.932;2022-09-17T07:54:15;101491.13;;;14.55;67.28
74529;BME280;63009;52.584;5.932;2022-09-17T07:56:41;101497.09;;;14.59;66.45
74529;BME280;63009;52.584;5.932;2022-09-17T07:59:08;101504.44;;;14.41;67.00
74529;BME280;63009;52.584;5.932;2022-09-17T08:01:33;101492.31;;;14.22;66.41
74529;BME280;63009;52.584;5.932;2022-09-17T08:03:59;101516.25;;;14.08;67.68
74529;BME280;63009;52.584;5.932;2022-09-17T08:06:26;101528.38;;;14.26;68.41
74529;BME280;63009;52.584;5.932;2022-09-17T08:08:55;101526.03;;;14.08;71.06
74529;BME280;63009;52.584;5.932;2022-09-17T08:11:23;101527.63;;;13.68;72.22
74529;BME280;63009;52.584;5.932;2022-09-17T08:13:51;101526.56;;;13.26;73.10
74529;BME280;63009;52.584;5.932;2022-09-17T08:16:17;101513.19;;;12.82;73.76
74529;BME280;63009;52.584;5.932;2022-09-17T08:18:44;101500.34;;;12.74;73.81
74529;BME280;63009;52.584;5.932;2022-09-17T08:21:11;101506.00;;;12.68;73.84
74529;BME280;63009;52.584;5.932;2022-09-17T08:23:39;101511.06;;;12.57;72.96
74529;BME280;63009;52.584;5.932;2022-09-17T08:26:06;101511.06;;;12.57;73.96
74529;BME280;63009;52.584;5.932;2022-09-17T08:28:33;101515.47;;;12.88;73.86
74529;BME280;63009;52.584;5.932;2022-09-17T08:31:01;101508.94;;;12.93;73.32
74529;BME280;63009;52.584;5.932;2022-09-17T08:33:30;101500.59;;;13.15;72.65
74529;BME280;63009;52.584;5.932;2022-09-17T08:35:55;101507.38;;;13.65;71.53
74529;BME280;63009;52.584;5.932;2022-09-17T08:38:25;101512.72;;;13.79;69.22
74529;BME280;63009;52.584;5.932;2022-09-17T08:46:03;101513.03;;;14.73;66.40
74529;BME280;63009;52.584;5.932;2022-09-17T08:48:38;101511.00;;;14.76;66.69
74529;BME280;63009;52.584;5.932;2022-09-17T08:51:16;101520.84;;;14.62;66.82
74529;BME280;63009;52.584;5.932;2022-09-17T08:54:15;101516.69;;;14.43;65.58
74529;BME280;63009;52.584;5.932;2022-09-17T08:56:44;101517.44;;;14.31;67.86
74529;BME280;63009;52.584;5.932;2022-09-17T08:59:13;101523.16;;;14.25;68.39
74529;BME280;63009;52.584;5.932;2022-09-17T09:02:01;101521.47;;;13.95;66.74
74529;BME280;63009;52.584;5.932;2022-09-17T09:05:01;101538.06;;;14.13;63.98
74529;BME280;63009;52.584;5.932;2022-09-17T09:07:31;101541.97;;;14.22;64.44
74529;BME280;63009;52.584;5.932;2022-09-17T09:10:12;101541.28;;;14.33;63.64
74529;BME280;63009;52.584;5.932;2022-09-17T09:12:40;101542.16;;;14.19;66.09
74529;BME280;63009;52.584;5.932;2022-09-17T09:15:23;101529.81;;;13.89;67.17
74529;BME280;63009;52.584;5.932;2022-09-17T09:17:52;101544.78;;;13.76;67.59
74529;BME280;63009;52.584;5.932;2022-09-17T09:20:29;101557.63;;;13.98;69.42
74529;BME280;63009;52.584;5.932;2022-09-17T09:22:59;101551.47;;;13.98;69.57
74529;BME280;63009;52.584;5.932;2022-09-17T09:25:33;101555.06;;;14.25;68.90
74529;BME280;63009;52.584;5.932;2022-09-17T09:28:46;101545.94;;;14.29;68.28
74529;BME280;63009;52.584;5.932;2022-09-17T09:34:03;101524.47;;;14.61;68.27
74529;BME280;63009;52.584;5.932;2022-09-17T09:36:31;101538.91;;;14.57;67.58
74529;BME280;63009;52.584;5.932;2022-09-17T09:39:02;101541.28;;;14.33;68.42
74529;BME280;63009;52.584;5.932;2022-09-17T09:41:33;101544.91;;;14.32;67.87
74529;BME280;63009;52.584;5.932;2022-09-17T09:44:03;101545.75;;;14.32;69.66
74529;BME280;63009;52.584;5.932;2022-09-17T09:52:19;101534.09;;;14.76;68.55
74529;BME280;63009;52.584;5.932;2022-09-17T09:55:02;101536.19;;;14.85;65.93
74529;BME280;63009;52.584;5.932;2022-09-17T09:57:46;101532.41;;;14.75;66.41
74529;BME280;63009;52.584;5.932;2022-09-17T10:02:53;101528.66;;;14.65;68.70
74529;BME280;63009;52.584;5.932;2022-09-17T10:05:20;101533.34;;;14.74;68.18
74529;BME280;63009;52.584;5.932;2022-09-17T10:07:46;101518.66;;;14.68;65.85
74529;BME280;63009;52.584;5.932;2022-09-17T10:10:11;101508.31;;;14.49;65.15
74529;BME280;63009;52.584;5.932;2022-09-17T10:12:36;101542.75;;;14.52;67.57
74529;BME280;63009;52.584;5.932;2022-09-17T10:15:26;101567.53;;;14.10;70.26
74529;BME280;63009;52.584;5.932;2022-09-17T10:18:18;101565.72;;;13.52;74.99
74529;BME280;63009;52.584;5.932;2022-09-17T10:20:54;101546.00;;;12.95;73.59
74529;BME280;63009;52.584;5.932;2022-09-17T10:23:21;101537.03;;;12.66;74.46
74529;BME280;63009;52.584;5.932;2022-09-17T10:25:47;101523.53;;;12.39;76.35
74529;BME280;63009;52.584;5.932;2022-09-17T10:31:02;101510.59;;;12.17;77.84
74529;BME280;63009;52.584;5.932;2022-09-17T10:33:30;101515.41;;;11.93;78.27
74529;BME280;63009;52.584;5.932;2022-09-17T10:36:06;101515.28;;;12.12;78.65
74529;BME280;63009;52.584;5.932;2022-09-17T10:38:39;101514.66;;;12.56;77.05
74529;BME280;63009;52.584;5.932;2022-09-17T10:41:10;101503.13;;;13.02;76.25
74529;BME280;63009;52.584;5.932;2022-09-17T10:43:35;101489.03;;;13.32;74.79
74529;BME280;63009;52.584;5.932;2022-09-17T10:46:01;101494.03;;;13.66;74.45
74529;BME280;63009;52.584;5.932;2022-09-17T10:48:32;101511.78;;;14.09;72.14
74529;BME280;63009;52.584;5.932;2022-09-17T10:51:00;101508.06;;;14.25;70.47
74529;BME280;63009;52.584;5.932;2022-09-17T10:53:27;101485.66;;;14.44;67.49
74529;BME280;63009;52.584;5.932;2022-09-17T10:56:22;101490.09;;;14.58;68.25
74529;BME280;63009;52.584;5.932;2022-09-17T10:59:01;101478.59;;;14.84;67.94
74529;BME280;63009;52.584;5.932;2022-09-17T11:01:44;101480.69;;;15.19;69.14
74529;BME280;63009;52.584;5.932;2022-09-17T11:04:24;101467.84;;;15.25;66.04
74529;BME280;63009;52.584;5.932;2022-09-17T11:07:03;101464.13;;;15.40;65.82
74529;BME280;63009;52.584;5.932;2022-09-17T11:09:51;101482.94;;;15.77;66.83
74529;BME280;63009;52.584;5.932;2022-09-17T11:15:27;101474.59;;;15.94;63.11
74529;BME280;63009;52.584;5.932;2022-09-17T11:26:00;101490.13;;;14.97;63.68
74529;BME280;63009;52.584;5.932;2022-09-17T11:28:42;101502.31;;;15.14;62.61
74529;BME280;63009;52.584;5.932;2022-09-17T11:31:23;101495.19;;;15.14;64.29
74529;BME280;63009;52.584;5.932;2022-09-17T11:36:53;101499.03;;;15.23;63.19
74529;BME280;63009;52.584;5.932;2022-09-17T11:39:26;101508.03;;;15.35;62.54
74529;BME280;63009;52.584;5.932;2022-09-17T11:41:54;101479.34;;;15.26;62.02
74529;BME280;63009;52.584;5.932;2022-09-17T11:44:42;101501.53;;;15.39;59.74
74529;BME280;63009;52.584;5.932;2022-09-17T11:47:18;101514.56;;;15.17;61.91
74529;BME280;63009;52.584;5.932;2022-09-17T11:49:50;101501.97;;;14.52;62.53
74529;BME280;63009;52.584;5.932;2022-09-17T11:54:49;101511.13;;;14.75;65.57
74529;BME280;63009;52.584;5.932;2022-09-17T11:57:22;101496.25;;;14.85;66.29
74529;BME280;63009;52.584;5.932;2022-09-17T11:59:58;101495.41;;;15.11;65.94
74529;BME280;63009;52.584;5.932;2022-09-17T12:03:08;101497.47;;;14.94;64.69
74529;BME280;63009;52.584;5.932;2022-09-17T12:05:50;101477.63;;;14.85;65.15
74529;BME280;63009;52.584;5.932;2022-09-17T12:08:28;101498.28;;;15.08;66.16
74529;BME280;63009;52.584;5.932;2022-09-17T12:11:06;101502.91;;;14.92;65.34
74529;BME280;63009;52.584;5.932;2022-09-17T12:13:49;101522.50;;;14.77;64.42
74529;BME280;63009;52.584;5.932;2022-09-17T12:16:25;101511.13;;;14.75;64.47
74529;BME280;63009;52.584;5.932;2022-09-17T12:19:10;101505.28;;;14.55;66.45
74529;BME280;63009;52.584;5.932;2022-09-17T12:21:44;101514.22;;;14.54;66.81
74529;BME280;63009;52.584;5.932;2022-09-17T12:35:05;101490.50;;;15.18;67.11
74529;BME280;63009;52.584;5.932;2022-09-17T12:38:10;101473.91;;;15.27;65.96
74529;BME280;63009;52.584;5.932;2022-09-17T12:51:50;101519.91;;;14.48;71.23
74529;BME280;63009;52.584;5.932;2022-09-17T12:54:32;101510.25;;;13.76;75.48
74529;BME280;63009;52.584;5.932;2022-09-17T12:59:39;101506.00;;;12.84;77.26
74529;BME280;63009;52.584;5.932;2022-09-17T13:02:18;101490.25;;;12.33;77.60
74529;BME280;63009;52.584;5.932;2022-09-17T13:19:03;101498.59;;;13.34;74.60
74529;BME280;63009;52.584;5.932;2022-09-17T13:21:47;101489.56;;;13.53;74.84
74529;BME280;63009;52.584;5.932;2022-09-17T13:24:17;101507.22;;;13.82;72.03
74529;BME280;63009;52.584;5.932;2022-09-17T13:26:44;101500.13;;;13.97;73.14
74529;BME280;63009;52.584;5.932;2022-09-17T13:29:10;101495.66;;;14.12;72.08
74529;BME280;63009;52.584;5.932;2022-09-17T13:39:42;101514.28;;;14.67;62.46
74529;BME280;63009;52.584;5.932;2022-09-17T13:42:27;101509.38;;;14.47;63.74
74529;BME280;63009;52.584;5.932;2022-09-17T13:45:14;101479.28;;;14.32;66.01
74529;BME280;63009;52.584;5.932;2022-09-17T13:48:24;101524.63;;;14.72;66.27
74529;BME280;63009;52.584;5.932;2022-09-17T13:50:43;101533.47;;;14.72;65.06
74529;BME280;63009;52.584;5.932;2022-09-17T13:55:58;101539.47;;;13.76;68.33
74529;BME280;63009;52.584;5.932;2022-09-17T13:58:29;101521.00;;;13.45;70.98
74529;BME280;63009;52.584;5.932;2022-09-17T14:01:02;101538.31;;;13.52;71.90
74529;BME280;63009;52.584;5.932;2022-09-17T14:29:54;101569.47;;;13.92;68.74
74529;BME280;63009;52.584;5.932;2022-09-17T14:32:27;101553.91;;;13.86;68.78
74529;BME280;63009;52.584;5.932;2022-09-17T14:34:59;101546.13;;;13.83;68.00
74529;BME280;63009;52.584;5.932;2022-09-17T14:37:24;101555.06;;;13.96;68.95
74529;BME280;63009;52.584;5.932;2022-09-17T14:39:50;101547.28;;;13.93;65.59
74529;BME280;63009;52.584;5.932;2022-09-17T14:42:33;101539.22;;;13.95;62.18
74529;BME280;63009;52.584;5.932;2022-09-17T14:45:03;101542.34;;;14.02;65.21
74529;BME280;63009;52.584;5.932;2022-09-17T14:47:30;101545.84;;;14.16;63.82
74529;BME280;63009;52.584;5.932;2022-09-17T14:50:25;101534.16;;;14.05;63.17
74529;BME280;63009;52.584;5.932;2022-09-17T14:52:52;101541.41;;;14.17;63.75
74529;BME280;63009;52.584;5.932;2022-09-17T14:55:21;101534.00;;;14.22;63.96
74529;BME280;63009;52.584;5.932;2022-09-17T14:57:55;101522.41;;;14.23;64.61
74529;BME280;63009;52.584;5.932;2022-09-17T15:00:23;101525.72;;;14.26;65.52
74529;BME280;63009;52.584;5.932;2022-09-17T15:02:51;101553.53;;;14.35;65.68
74529;BME280;63009;52.584;5.932;2022-09-17T15:05:24;101566.34;;;14.43;69.46
74529;BME280;63009;52.584;5.932;2022-09-17T15:08:03;101574.50;;;13.83;74.68
74529;BME280;63009;52.584;5.932;2022-09-17T15:10:30;101562.22;;;13.52;73.98
74529;BME280;63009;52.584;5.932;2022-09-17T15:12:55;101545.47;;;13.20;75.49
74529;BME280;63009;52.584;5.932;2022-09-17T15:15:23;101547.81;;;13.10;76.86
74529;BME280;63009;52.584;5.932;2022-09-17T15:17:50;101549.50;;;13.11;77.89
74529;BME280;63009;52.584;5.932;2022-09-17T15:20:20;101529.56;;;13.04;79.33
74529;BME280;63009;52.584;5.932;2022-09-17T15:22:55;101526.81;;;13.05;78.86
74529;BME280;63009;52.584;5.932;2022-09-17T15:25:25;101519.13;;;13.01;78.48
74529;BME280;63009;52.584;5.932;2022-09-17T15:27:57;101533.69;;;13.10;79.05